sensor_id;sensor_type;location;lat;lon;timestamp;temperature;humidity
70368;DHT22;57789;53.868;10.728;2023-02-26T00:00:46;1.00;99.90
70368;DHT22;57789;53.868;10.728;2023-02-26T00:03:11;0.90;99.90
70368;DHT22;57789;53.868;10.728;2023-02-26T00:05:37;0.90;99.90
70368;DHT22;57789;53.868;10.728;2023-02-26T00:08:02;0.80;99.90
70368;DHT22;57789;53.868;10.728;2023-02-26T00:10:30;0.80;99.90
70368;DHT22;57789;53.868;10.728;2023-02-26T00:12:56;0.80;99.90
70368;DHT22;57789;53.868;10.728;2023-02-26T00:15:22;0.80;99.90
70368;DHT22;57789;53.868;10.728;2023-02-26T00:17:59;0.90;99.90
70368;DHT22;57789;53.868;10.728;2023-02-26T00:20:26;0.90;99.90
70368;DHT22;57789;53.868;10.728;2023-02-26T00:22:52;1.00;99.90
70368;DHT22;57789;53.868;10.728;2023-02-26T00:25:18;1.00;99.90
70368;DHT22;57789;53.868;10.728;2023-02-26T00:27:44;1.10;99.90
70368;DHT22;57789;53.868;10.728;2023-02-26T00:30:10;1.10;99.90
70368;DHT22;57789;53.868;10.728;2023-02-26T00:32:37;1.10;99.90
70368;DHT22;57789;53.868;10.728;2023-02-26T00:35:08;1.10;99.90
70368;DHT22;57789;53.868;10.728;2023-02-26T00:42:54;1.10;99.90
70368;DHT22;57789;53.868;10.728;2023-02-26T00:45:20;1.10;99.90
70368;DHT22;57789;53.868;10.728;2023-02-26T00:50:59;1.20;99.90
70368;DHT22;57789;53.868;10.728;2023-02-26T00:53:56;1.20;99.90
70368;DHT22;57789;53.868;10.728;2023-02-26T00:56:24;1.20;99.90
70368;DHT22;57789;53.868;10.728;2023-02-26T00:58:49;1.30;99.90
70368;DHT22;57789;53.868;10.728;2023-02-26T01:01:15;1.20;99.90
70368;DHT22;57789;53.868;10.728;2023-02-26T01:03:41;1.10;99.90
70368;DHT22;57789;53.868;10.728;2023-02-26T01:06:14;1.10;99.90
70368;DHT22;57789;53.868;10.728;2023-02-26T01:11:25;1.00;99.90
70368;DHT22;57789;53.868;10.728;2023-02-26T01:13:51;0.90;99.90
70368;DHT22;57789;53.868;10.728;2023-02-26T01:16:22;0.90;99.90
70368;DHT22;57789;53.868;10.728;2023-02-26T01:19:01;0.90;99.90
70368;DHT22;57789;53.868;10.728;2023-02-26T01:21:35;0.80;99.90
70368;DHT22;57789;53.868;10.728;2023-02-26T01:24:05;0.80;99.90
70368;DHT22;57789;53.868;10.728;2023-02-26T01:26:32;0.70;99.90
70368;DHT22;57789;53.868;10.728;2023-02-26T01:28:58;0.60;99.90
70368;DHT22;57789;53.868;10.728;2023-02-26T01:31:47;0.60;99.90
70368;DHT22;57789;53.868;10.728;2023-02-26T01:34:25;0.60;99.90
70368;DHT22;57789;53.868;10.728;2023-02-26T01:37:28;0.60;99.90
70368;DHT22;57789;53.868;10.728;2023-02-26T01:40:16;0.50;99.90
70368;DHT22;57789;53.868;10.728;2023-02-26T01:42:49;0.50;99.90
70368;DHT22;57789;53.868;10.728;2023-02-26T01:45:25;0.50;99.90
70368;DHT22;57789;53.868;10.728;2023-02-26T01:48:01;0.40;99.90
70368;DHT22;57789;53.868;10.728;2023-02-26T01:50:28;0.40;99.90
70368;DHT22;57789;53.868;10.728;2023-02-26T01:53:22;0.30;99.90
70368;DHT22;57789;53.868;10.728;2023-02-26T01:55:59;0.30;99.90
70368;DHT22;57789;53.868;10.728;2023-02-26T01:58:28;0.30;99.90
70368;DHT22;57789;53.868;10.728;2023-02-26T02:00:55;0.20;99.90
70368;DHT22;57789;53.868;10.728;2023-02-26T02:03:21;0.20;99.90
70368;DHT22;57789;53.868;10.728;2023-02-26T02:06:37;0.20;99.90
70368;DHT22;57789;53.868;10.728;2023-02-26T02:08:43;0.20;99.90
70368;DHT22;57789;53.868;10.728;2023-02-26T02:11:11;0.10;99.90
70368;DHT22;57789;53.868;10.728;2023-02-26T02:19:53;0.10;99.90
70368;DHT22;57789;53.868;10.728;2023-02-26T02:28:08;0.00;99.90
70368;DHT22;57789;53.868;10.728;2023-02-26T02:33:18;-0.10;99.90
70368;DHT22;57789;53.868;10.728;2023-02-26T02:35:53;-0.20;99.90
70368;DHT22;57789;53.868;10.728;2023-02-26T02:38:52;-0.20;99.90
70368;DHT22;57789;53.868;10.728;2023-02-26T02:41:25;-0.20;99.90
70368;DHT22;57789;53.868;10.728;2023-02-26T02:43:54;-0.10;99.90
70368;DHT22;57789;53.868;10.728;2023-02-26T02:46:26;-0.20;99.90
70368;DHT22;57789;53.868;10.728;2023-02-26T02:49:02;-0.30;99.90
70368;DHT22;57789;53.868;10.728;2023-02-26T02:51:36;-0.30;99.90
70368;DHT22;57789;53.868;10.728;2023-02-26T02:54:13;-0.40;99.90
70368;DHT22;57789;53.868;10.728;2023-02-26T02:56:55;-0.40;99.90
70368;DHT22;57789;53.868;10.728;2023-02-26T02:59:31;-0.30;99.90
70368;DHT22;57789;53.868;10.728;2023-02-26T03:04:46;-0.40;99.90
70368;DHT22;57789;53.868;10.728;2023-02-26T03:07:13;-0.50;99.90
70368;DHT22;57789;53.868;10.728;2023-02-26T03:09:39;-0.50;99.90
70368;DHT22;57789;53.868;10.728;2023-02-26T03:12:05;-0.50;99.90
70368;DHT22;57789;53.868;10.728;2023-02-26T03:14:31;-0.50;99.90
70368;DHT22;57789;53.868;10.728;2023-02-26T03:17:26;-0.50;99.90
70368;DHT22;57789;53.868;10.728;2023-02-26T03:20:12;-0.60;99.90
70368;DHT22;57789;53.868;10.728;2023-02-26T03:30:45;-0.60;99.90
70368;DHT22;57789;53.868;10.728;2023-02-26T03:41:16;-0.70;99.90
70368;DHT22;57789;53.868;10.728;2023-02-26T03:46:22;-0.80;99.90
70368;DHT22;57789;53.868;10.728;2023-02-26T03:48:50;-0.80;99.90
70368;DHT22;57789;53.868;10.728;2023-02-26T03:51:18;-0.80;99.90
70368;DHT22;57789;53.868;10.728;2023-02-26T03:54:00;-0.80;99.90
70368;DHT22;57789;53.868;10.728;2023-02-26T03:56:46;-0.80;99.90
70368;DHT22;57789;53.868;10.728;2023-02-26T03:59:14;-0.90;99.90
70368;DHT22;57789;53.868;10.728;2023-02-26T04:04:33;-0.90;99.90
70368;DHT22;57789;53.868;10.728;2023-02-26T04:07:00;-0.90;99.90
70368;DHT22;57789;53.868;10.728;2023-02-26T04:09:26;-0.90;99.90
70368;DHT22;57789;53.868;10.728;2023-02-26T04:11:53;-0.80;99.90
70368;DHT22;57789;53.868;10.728;2023-02-26T04:14:20;-0.80;99.90
70368;DHT22;57789;53.868;10.728;2023-02-26T04:16:46;-0.80;99.90
70368;DHT22;57789;53.868;10.728;2023-02-26T04:19:12;-0.90;99.90
70368;DHT22;57789;53.868;10.728;2023-02-26T04:21:38;-0.90;99.90
70368;DHT22;57789;53.868;10.728;2023-02-26T04:24:04;-0.90;99.90
70368;DHT22;57789;53.868;10.728;2023-02-26T04:26:30;-0.90;99.90
70368;DHT22;57789;53.868;10.728;2023-02-26T04:28:55;-0.90;99.90
70368;DHT22;57789;53.868;10.728;2023-02-26T04:31:21;-0.90;99.90
70368;DHT22;57789;53.868;10.728;2023-02-26T04:33:47;-0.90;99.90
70368;DHT22;57789;53.868;10.728;2023-02-26T04:36:12;-0.80;99.90
70368;DHT22;57789;53.868;10.728;2023-02-26T04:38:38;-0.80;99.90
70368;DHT22;57789;53.868;10.728;2023-02-26T04:41:04;-0.80;99.90
70368;DHT22;57789;53.868;10.728;2023-02-26T04:43:30;-0.80;99.90
70368;DHT22;57789;53.868;10.728;2023-02-26T04:45:56;-0.80;99.90
70368;DHT22;57789;53.868;10.728;2023-02-26T04:48:21;-0.80;99.90
70368;DHT22;57789;53.868;10.728;2023-02-26T04:50:47;-0.80;99.90
70368;DHT22;57789;53.868;10.728;2023-02-26T04:53:13;-0.80;99.90
70368;DHT22;57789;53.868;10.728;2023-02-26T04:55:39;-0.80;99.90
70368;DHT22;57789;53.868;10.728;2023-02-26T04:58:06;-0.90;99.90
70368;DHT22;57789;53.868;10.728;2023-02-26T05:00:32;-0.90;99.90
70368;DHT22;57789;53.868;10.728;2023-02-26T05:03:03;-0.80;99.90
70368;DHT22;57789;53.868;10.728;2023-02-26T05:05:29;-0.80;99.90
70368;DHT22;57789;53.868;10.728;2023-02-26T05:07:55;-0.80;99.90
70368;DHT22;57789;53.868;10.728;2023-02-26T05:10:21;-0.80;99.90
70368;DHT22;57789;53.868;10.728;2023-02-26T05:12:47;-0.90;99.90
70368;DHT22;57789;53.868;10.728;2023-02-26T05:15:12;-0.90;99.90
70368;DHT22;57789;53.868;10.728;2023-02-26T05:17:38;-0.90;99.90
70368;DHT22;57789;53.868;10.728;2023-02-26T05:20:05;-0.90;99.90
70368;DHT22;57789;53.868;10.728;2023-02-26T05:22:32;-0.80;99.90
70368;DHT22;57789;53.868;10.728;2023-02-26T05:24:57;-0.80;99.90
70368;DHT22;57789;53.868;10.728;2023-02-26T05:27:23;-0.80;99.90
70368;DHT22;57789;53.868;10.728;2023-02-26T05:29:48;-0.80;99.90
70368;DHT22;57789;53.868;10.728;2023-02-26T05:32:14;-0.80;99.90
70368;DHT22;57789;53.868;10.728;2023-02-26T05:34:40;-0.80;99.90
70368;DHT22;57789;53.868;10.728;2023-02-26T05:37:05;-0.90;99.90
70368;DHT22;57789;53.868;10.728;2023-02-26T05:39:31;-0.90;99.90
70368;DHT22;57789;53.868;10.728;2023-02-26T05:41:57;-0.90;99.90
70368;DHT22;57789;53.868;10.728;2023-02-26T05:44:23;-0.90;99.90
70368;DHT22;57789;53.868;10.728;2023-02-26T05:46:48;-0.90;99.90
70368;DHT22;57789;53.868;10.728;2023-02-26T05:49:14;-0.80;99.90
70368;DHT22;57789;53.868;10.728;2023-02-26T05:51:40;-0.80;99.90
70368;DHT22;57789;53.868;10.728;2023-02-26T05:54:07;-0.80;99.90
70368;DHT22;57789;53.868;10.728;2023-02-26T05:56:33;-0.80;99.90
70368;DHT22;57789;53.868;10.728;2023-02-26T05:58:59;-0.80;99.90
70368;DHT22;57789;53.868;10.728;2023-02-26T06:01:24;-0.80;99.90
70368;DHT22;57789;53.868;10.728;2023-02-26T06:03:50;-0.80;99.90
70368;DHT22;57789;53.868;10.728;2023-02-26T06:06:15;-0.80;99.90
70368;DHT22;57789;53.868;10.728;2023-02-26T06:08:43;-0.80;99.90
70368;DHT22;57789;53.868;10.728;2023-02-26T06:11:09;-0.80;99.90
70368;DHT22;57789;53.868;10.728;2023-02-26T06:13:35;-0.70;99.90
70368;DHT22;57789;53.868;10.728;2023-02-26T06:16:00;-0.60;99.90
70368;DHT22;57789;53.868;10.728;2023-02-26T06:18:26;-0.60;99.90
70368;DHT22;57789;53.868;10.728;2023-02-26T06:20:52;-0.60;99.90
70368;DHT22;57789;53.868;10.728;2023-02-26T06:23:18;-0.70;99.90
70368;DHT22;57789;53.868;10.728;2023-02-26T06:25:44;-0.70;99.90
70368;DHT22;57789;53.868;10.728;2023-02-26T06:28:10;-0.70;99.90
70368;DHT22;57789;53.868;10.728;2023-02-26T06:30:35;-0.80;99.90
70368;DHT22;57789;53.868;10.728;2023-02-26T06:33:01;-0.80;99.90
70368;DHT22;57789;53.868;10.728;2023-02-26T06:35:27;-0.70;99.90
70368;DHT22;57789;53.868;10.728;2023-02-26T06:37:55;-0.70;99.90
70368;DHT22;57789;53.868;10.728;2023-02-26T06:40:21;-0.70;99.90
70368;DHT22;57789;53.868;10.728;2023-02-26T06:42:46;-0.70;99.90
70368;DHT22;57789;53.868;10.728;2023-02-26T06:45:12;-0.70;99.90
70368;DHT22;57789;53.868;10.728;2023-02-26T06:47:37;-0.70;99.90
70368;DHT22;57789;53.868;10.728;2023-02-26T06:50:03;-0.70;99.90
70368;DHT22;57789;53.868;10.728;2023-02-26T06:52:29;-0.70;99.90
70368;DHT22;57789;53.868;10.728;2023-02-26T06:54:55;-0.70;99.90
70368;DHT22;57789;53.868;10.728;2023-02-26T06:57:21;-0.60;99.90
70368;DHT22;57789;53.868;10.728;2023-02-26T06:59:46;-0.60;99.90
70368;DHT22;57789;53.868;10.728;2023-02-26T07:02:17;-0.60;99.90
70368;DHT22;57789;53.868;10.728;2023-02-26T07:04:43;-0.50;99.90
70368;DHT22;57789;53.868;10.728;2023-02-26T07:07:08;-0.50;99.90
70368;DHT22;57789;53.868;10.728;2023-02-26T07:09:34;-0.50;99.90
70368;DHT22;57789;53.868;10.728;2023-02-26T07:11:59;-0.60;99.90
70368;DHT22;57789;53.868;10.728;2023-02-26T07:14:25;-0.50;99.90
70368;DHT22;57789;53.868;10.728;2023-02-26T07:16:51;-0.50;99.90
70368;DHT22;57789;53.868;10.728;2023-02-26T07:19:16;-0.40;99.90
70368;DHT22;57789;53.868;10.728;2023-02-26T07:21:42;-0.40;99.90
70368;DHT22;57789;53.868;10.728;2023-02-26T07:24:08;-0.40;99.90
70368;DHT22;57789;53.868;10.728;2023-02-26T07:26:33;-0.40;99.90
70368;DHT22;57789;53.868;10.728;2023-02-26T07:28:59;-0.30;99.90
70368;DHT22;57789;53.868;10.728;2023-02-26T07:31:24;-0.30;99.90
70368;DHT22;57789;53.868;10.728;2023-02-26T07:33:50;-0.10;99.90
70368;DHT22;57789;53.868;10.728;2023-02-26T07:36:16;-0.10;99.90
70368;DHT22;57789;53.868;10.728;2023-02-26T07:38:41;-0.10;99.90
70368;DHT22;57789;53.868;10.728;2023-02-26T07:41:07;0.00;99.90
70368;DHT22;57789;53.868;10.728;2023-02-26T07:43:33;0.10;99.90
70368;DHT22;57789;53.868;10.728;2023-02-26T07:45:59;0.20;99.90
70368;DHT22;57789;53.868;10.728;2023-02-26T07:48:24;0.30;99.90
70368;DHT22;57789;53.868;10.728;2023-02-26T07:50:51;0.40;99.90
70368;DHT22;57789;53.868;10.728;2023-02-26T07:53:17;0.50;99.90
70368;DHT22;57789;53.868;10.728;2023-02-26T07:55:43;0.60;99.90
70368;DHT22;57789;53.868;10.728;2023-02-26T07:58:09;0.70;99.90
70368;DHT22;57789;53.868;10.728;2023-02-26T08:00:34;0.70;99.90
70368;DHT22;57789;53.868;10.728;2023-02-26T08:03:00;0.80;99.90
70368;DHT22;57789;53.868;10.728;2023-02-26T08:05:26;0.90;99.90
70368;DHT22;57789;53.868;10.728;2023-02-26T08:07:51;0.90;99.90
70368;DHT22;57789;53.868;10.728;2023-02-26T08:10:17;1.00;99.90
70368;DHT22;57789;53.868;10.728;2023-02-26T08:12:43;1.10;99.90
70368;DHT22;57789;53.868;10.728;2023-02-26T08:15:09;1.20;99.90
70368;DHT22;57789;53.868;10.728;2023-02-26T08:17:37;1.30;99.90
70368;DHT22;57789;53.868;10.728;2023-02-26T08:20:03;1.30;99.90
70368;DHT22;57789;53.868;10.728;2023-02-26T08:22:29;1.40;99.90
70368;DHT22;57789;53.868;10.728;2023-02-26T08:24:55;1.40;99.90
70368;DHT22;57789;53.868;10.728;2023-02-26T08:27:21;1.50;99.90
70368;DHT22;57789;53.868;10.728;2023-02-26T08:29:46;1.50;99.90
70368;DHT22;57789;53.868;10.728;2023-02-26T08:32:15;1.50;99.90
70368;DHT22;57789;53.868;10.728;2023-02-26T08:34:42;1.60;99.90
70368;DHT22;57789;53.868;10.728;2023-02-26T08:37:08;1.60;99.90
70368;DHT22;57789;53.868;10.728;2023-02-26T08:39:36;1.60;99.90
70368;DHT22;57789;53.868;10.728;2023-02-26T08:42:04;1.60;99.90
70368;DHT22;57789;53.868;10.728;2023-02-26T08:44:31;1.70;99.90
70368;DHT22;57789;53.868;10.728;2023-02-26T08:46:57;1.80;99.90
70368;DHT22;57789;53.868;10.728;2023-02-26T08:49:23;1.80;99.90
70368;DHT22;57789;53.868;10.728;2023-02-26T08:51:48;1.90;99.90
70368;DHT22;57789;53.868;10.728;2023-02-26T08:54:14;1.90;99.90
70368;DHT22;57789;53.868;10.728;2023-02-26T08:56:40;2.00;99.90
70368;DHT22;57789;53.868;10.728;2023-02-26T08:59:06;2.00;99.90
70368;DHT22;57789;53.868;10.728;2023-02-26T09:01:33;2.10;99.90
70368;DHT22;57789;53.868;10.728;2023-02-26T09:03:59;2.00;99.90
70368;DHT22;57789;53.868;10.728;2023-02-26T09:06:24;2.10;99.90
70368;DHT22;57789;53.868;10.728;2023-02-26T09:08:50;2.10;99.90
70368;DHT22;57789;53.868;10.728;2023-02-26T09:11:15;2.10;99.90
70368;DHT22;57789;53.868;10.728;2023-02-26T09:13:41;2.10;99.90
70368;DHT22;57789;53.868;10.728;2023-02-26T09:16:07;2.20;99.90
70368;DHT22;57789;53.868;10.728;2023-02-26T09:18:32;2.30;99.90
70368;DHT22;57789;53.868;10.728;2023-02-26T09:20:58;2.30;99.90
70368;DHT22;57789;53.868;10.728;2023-02-26T09:23:24;2.40;99.90
70368;DHT22;57789;53.868;10.728;2023-02-26T09:25:54;2.50;99.90
70368;DHT22;57789;53.868;10.728;2023-02-26T09:28:21;2.60;99.90
70368;DHT22;57789;53.868;10.728;2023-02-26T09:30:51;2.70;99.90
70368;DHT22;57789;53.868;10.728;2023-02-26T09:33:17;3.00;99.90
70368;DHT22;57789;53.868;10.728;2023-02-26T09:35:43;3.30;99.90
70368;DHT22;57789;53.868;10.728;2023-02-26T09:38:09;3.80;99.90
70368;DHT22;57789;53.868;10.728;2023-02-26T09:40:54;4.30;99.90
70368;DHT22;57789;53.868;10.728;2023-02-26T09:43:27;4.90;99.90
70368;DHT22;57789;53.868;10.728;2023-02-26T09:45:57;5.20;99.90
70368;DHT22;57789;53.868;10.728;2023-02-26T09:48:24;5.40;99.90
70368;DHT22;57789;53.868;10.728;2023-02-26T09:50:56;5.60;99.90
70368;DHT22;57789;53.868;10.728;2023-02-26T09:53:36;5.70;99.90
70368;DHT22;57789;53.868;10.728;2023-02-26T09:56:07;5.80;99.90
70368;DHT22;57789;53.868;10.728;2023-02-26T09:58:39;5.60;99.90
70368;DHT22;57789;53.868;10.728;2023-02-26T10:01:15;5.20;99.90
70368;DHT22;57789;53.868;10.728;2023-02-26T10:09:13;4.90;99.90
70368;DHT22;57789;53.868;10.728;2023-02-26T10:11:50;5.00;99.90
70368;DHT22;57789;53.868;10.728;2023-02-26T10:16:54;5.30;99.90
70368;DHT22;57789;53.868;10.728;2023-02-26T10:19:25;5.50;99.90
70368;DHT22;57789;53.868;10.728;2023-02-26T10:24:25;6.30;99.90
70368;DHT22;57789;53.868;10.728;2023-02-26T10:27:02;6.70;99.90
70368;DHT22;57789;53.868;10.728;2023-02-26T10:30:02;6.80;99.90
70368;DHT22;57789;53.868;10.728;2023-02-26T10:32:50;6.70;99.90
70368;DHT22;57789;53.868;10.728;2023-02-26T10:35:18;6.90;99.90
70368;DHT22;57789;53.868;10.728;2023-02-26T10:38:12;6.70;99.90
70368;DHT22;57789;53.868;10.728;2023-02-26T10:51:23;6.70;99.90
70368;DHT22;57789;53.868;10.728;2023-02-26T10:54:05;6.90;99.90
70368;DHT22;57789;53.868;10.728;2023-02-26T10:56:35;6.50;99.90
70368;DHT22;57789;53.868;10.728;2023-02-26T10:59:00;6.60;99.90
70368;DHT22;57789;53.868;10.728;2023-02-26T11:01:28;6.50;99.90
70368;DHT22;57789;53.868;10.728;2023-02-26T11:04:08;6.50;99.90
70368;DHT22;57789;53.868;10.728;2023-02-26T11:06:55;6.30;99.90
70368;DHT22;57789;53.868;10.728;2023-02-26T11:14:36;6.50;99.90
70368;DHT22;57789;53.868;10.728;2023-02-26T11:17:21;6.70;99.90
70368;DHT22;57789;53.868;10.728;2023-02-26T11:19:52;7.20;99.90
70368;DHT22;57789;53.868;10.728;2023-02-26T11:22:21;7.20;99.90
70368;DHT22;57789;53.868;10.728;2023-02-26T11:24:50;7.40;99.90
70368;DHT22;57789;53.868;10.728;2023-02-26T11:27:31;7.70;99.90
70368;DHT22;57789;53.868;10.728;2023-02-26T11:30:21;7.40;99.90
70368;DHT22;57789;53.868;10.728;2023-02-26T11:32:52;6.80;99.90
70368;DHT22;57789;53.868;10.728;2023-02-26T11:35:21;6.20;99.90
70368;DHT22;57789;53.868;10.728;2023-02-26T11:37:53;5.90;99.90
70368;DHT22;57789;53.868;10.728;2023-02-26T11:40:42;6.10;99.90
70368;DHT22;57789;53.868;10.728;2023-02-26T11:43:19;6.50;99.90
70368;DHT22;57789;53.868;10.728;2023-02-26T11:45:51;7.00;99.90
70368;DHT22;57789;53.868;10.728;2023-02-26T11:48:24;8.00;99.90
70368;DHT22;57789;53.868;10.728;2023-02-26T11:50:58;8.90;99.90
70368;DHT22;57789;53.868;10.728;2023-02-26T11:53:32;9.20;99.90
70368;DHT22;57789;53.868;10.728;2023-02-26T11:56:02;9.20;99.90
70368;DHT22;57789;53.868;10.728;2023-02-26T11:58:33;8.70;99.90
70368;DHT22;57789;53.868;10.728;2023-02-26T12:01:01;8.40;99.90
70368;DHT22;57789;53.868;10.728;2023-02-26T12:03:30;8.00;99.90
70368;DHT22;57789;53.868;10.728;2023-02-26T12:05:57;7.80;99.90
70368;DHT22;57789;53.868;10.728;2023-02-26T12:08:34;7.60;99.90
70368;DHT22;57789;53.868;10.728;2023-02-26T12:19:48;6.30;99.90
70368;DHT22;57789;53.868;10.728;2023-02-26T12:41:09;6.30;99.90
70368;DHT22;57789;53.868;10.728;2023-02-26T12:43:45;6.20;99.90
70368;DHT22;57789;53.868;10.728;2023-02-26T13:16:19;5.60;99.90
70368;DHT22;57789;53.868;10.728;2023-02-26T13:21:21;5.60;99.90
70368;DHT22;57789;53.868;10.728;2023-02-26T13:26:33;6.20;99.90
70368;DHT22;57789;53.868;10.728;2023-02-26T13:29:19;6.30;99.90
70368;DHT22;57789;53.868;10.728;2023-02-26T13:32:10;6.20;99.90
70368;DHT22;57789;53.868;10.728;2023-02-26T13:35:04;6.00;99.90
70368;DHT22;57789;53.868;10.728;2023-02-26T13:37:38;5.70;99.90
70368;DHT22;57789;53.868;10.728;2023-02-26T13:51:33;7.10;99.90
70368;DHT22;57789;53.868;10.728;2023-02-26T13:53:59;7.00;99.90
70368;DHT22;57789;53.868;10.728;2023-02-26T14:06:47;6.30;99.90
70368;DHT22;57789;53.868;10.728;2023-02-26T14:20:08;5.20;99.90
70368;DHT22;57789;53.868;10.728;2023-02-26T14:22:37;5.00;99.90
70368;DHT22;57789;53.868;10.728;2023-02-26T14:27:41;4.80;99.90
70368;DHT22;57789;53.868;10.728;2023-02-26T14:35:27;5.70;99.90
70368;DHT22;57789;53.868;10.728;2023-02-26T14:40:29;6.40;99.90
70368;DHT22;57789;53.868;10.728;2023-02-26T14:43:02;6.30;99.90
70368;DHT22;57789;53.868;10.728;2023-02-26T14:47:59;5.90;99.90
70368;DHT22;57789;53.868;10.728;2023-02-26T14:50:32;5.60;99.90
70368;DHT22;57789;53.868;10.728;2023-02-26T15:05:26;6.10;99.90
70368;DHT22;57789;53.868;10.728;2023-02-26T15:16:54;5.80;99.90
70368;DHT22;57789;53.868;10.728;2023-02-26T15:24:50;5.70;99.90
70368;DHT22;57789;53.868;10.728;2023-02-26T15:27:18;5.70;99.90
70368;DHT22;57789;53.868;10.728;2023-02-26T15:29:45;5.70;99.90
70368;DHT22;57789;53.868;10.728;2023-02-26T15:34:58;5.40;99.90
70368;DHT22;57789;53.868;10.728;2023-02-26T15:37:27;5.20;99.90
70368;DHT22;57789;53.868;10.728;2023-02-26T15:39:54;5.10;99.90
70368;DHT22;57789;53.868;10.728;2023-02-26T15:42:23;4.90;99.90
70368;DHT22;57789;53.868;10.728;2023-02-26T15:44:49;4.70;99.90
70368;DHT22;57789;53.868;10.728;2023-02-26T15:47:16;4.50;99.90
70368;DHT22;57789;53.868;10.728;2023-02-26T15:49:46;4.40;99.90
70368;DHT22;57789;53.868;10.728;2023-02-26T15:52:19;4.40;99.90
70368;DHT22;57789;53.868;10.728;2023-02-26T15:54:49;4.20;99.90
70368;DHT22;57789;53.868;10.728;2023-02-26T15:57:17;4.20;99.90
70368;DHT22;57789;53.868;10.728;2023-02-26T15:59:49;4.30;99.90
70368;DHT22;57789;53.868;10.728;2023-02-26T16:02:19;4.30;99.90
70368;DHT22;57789;53.868;10.728;2023-02-26T16:04:45;4.10;99.90
70368;DHT22;57789;53.868;10.728;2023-02-26T16:07:12;4.10;99.90
70368;DHT22;57789;53.868;10.728;2023-02-26T16:09:41;4.00;99.90
70368;DHT22;57789;53.868;10.728;2023-02-26T16:14:44;4.00;99.90
70368;DHT22;57789;53.868;10.728;2023-02-26T16:17:13;4.00;99.90
70368;DHT22;57789;53.868;10.728;2023-02-26T16:19:44;3.90;99.90
70368;DHT22;57789;53.868;10.728;2023-02-26T16:22:17;3.90;99.90
70368;DHT22;57789;53.868;10.728;2023-02-26T16:24:45;3.80;99.90
70368;DHT22;57789;53.868;10.728;2023-02-26T16:27:13;3.70;99.90
70368;DHT22;57789;53.868;10.728;2023-02-26T16:29:49;3.60;99.90
70368;DHT22;57789;53.868;10.728;2023-02-26T16:32:16;3.50;99.90
70368;DHT22;57789;53.868;10.728;2023-02-26T16:34:53;3.50;99.90
70368;DHT22;57789;53.868;10.728;2023-02-26T16:37:30;3.40;99.90
70368;DHT22;57789;53.868;10.728;2023-02-26T16:42:44;3.20;99.90
70368;DHT22;57789;53.868;10.728;2023-02-26T16:47:44;3.20;99.90
70368;DHT22;57789;53.868;10.728;2023-02-26T16:50:27;3.10;99.90
70368;DHT22;57789;53.868;10.728;2023-02-26T16:53:18;3.10;99.90
70368;DHT22;57789;53.868;10.728;2023-02-26T16:55:50;3.00;99.90
70368;DHT22;57789;53.868;10.728;2023-02-26T16:58:17;2.90;99.90
70368;DHT22;57789;53.868;10.728;2023-02-26T17:00:45;2.80;99.90
70368;DHT22;57789;53.868;10.728;2023-02-26T17:03:18;2.80;99.90
70368;DHT22;57789;53.868;10.728;2023-02-26T17:08:27;2.60;99.90
70368;DHT22;57789;53.868;10.728;2023-02-26T17:11:01;2.60;99.90
70368;DHT22;57789;53.868;10.728;2023-02-26T17:13:31;2.60;99.90
70368;DHT22;57789;53.868;10.728;2023-02-26T17:16:11;2.60;99.90
70368;DHT22;57789;53.868;10.728;2023-02-26T17:18:37;2.50;99.90
70368;DHT22;57789;53.868;10.728;2023-02-26T17:21:03;2.40;99.90
70368;DHT22;57789;53.868;10.728;2023-02-26T17:23:35;2.40;99.90
70368;DHT22;57789;53.868;10.728;2023-02-26T17:26:02;2.40;99.90
70368;DHT22;57789;53.868;10.728;2023-02-26T17:28:34;2.40;99.90
70368;DHT22;57789;53.868;10.728;2023-02-26T17:31:01;2.50;99.90
70368;DHT22;57789;53.868;10.728;2023-02-26T17:33:28;2.40;99.90
70368;DHT22;57789;53.868;10.728;2023-02-26T17:36:02;2.40;99.90
70368;DHT22;57789;53.868;10.728;2023-02-26T17:38:28;2.40;99.90
70368;DHT22;57789;53.868;10.728;2023-02-26T17:40:54;2.40;99.90
70368;DHT22;57789;53.868;10.728;2023-02-26T17:43:24;2.30;99.90
70368;DHT22;57789;53.868;10.728;2023-02-26T17:45:50;2.30;99.90
70368;DHT22;57789;53.868;10.728;2023-02-26T17:48:16;2.30;99.90
70368;DHT22;57789;53.868;10.728;2023-02-26T17:53:11;2.30;99.90
70368;DHT22;57789;53.868;10.728;2023-02-26T17:55:37;2.20;99.90
70368;DHT22;57789;53.868;10.728;2023-02-26T17:58:05;2.20;99.90
70368;DHT22;57789;53.868;10.728;2023-02-26T18:00:32;2.20;99.90
70368;DHT22;57789;53.868;10.728;2023-02-26T18:03:04;2.00;99.90
70368;DHT22;57789;53.868;10.728;2023-02-26T18:05:29;1.90;99.90
70368;DHT22;57789;53.868;10.728;2023-02-26T18:07:57;1.90;99.90
70368;DHT22;57789;53.868;10.728;2023-02-26T18:10:23;1.80;99.90
70368;DHT22;57789;53.868;10.728;2023-02-26T18:12:49;1.80;99.90
70368;DHT22;57789;53.868;10.728;2023-02-26T18:15:15;1.80;99.90
70368;DHT22;57789;53.868;10.728;2023-02-26T18:17:41;1.80;99.90
70368;DHT22;57789;53.868;10.728;2023-02-26T18:20:16;1.70;99.90
70368;DHT22;57789;53.868;10.728;2023-02-26T18:22:42;1.70;99.90
70368;DHT22;57789;53.868;10.728;2023-02-26T18:25:08;1.70;99.90
70368;DHT22;57789;53.868;10.728;2023-02-26T18:27:33;1.60;99.90
70368;DHT22;57789;53.868;10.728;2023-02-26T18:29:59;1.60;99.90
70368;DHT22;57789;53.868;10.728;2023-02-26T18:32:26;1.60;99.90
70368;DHT22;57789;53.868;10.728;2023-02-26T18:34:52;1.60;99.90
70368;DHT22;57789;53.868;10.728;2023-02-26T18:37:21;1.60;99.90
70368;DHT22;57789;53.868;10.728;2023-02-26T18:39:48;1.50;99.90
70368;DHT22;57789;53.868;10.728;2023-02-26T18:42:26;1.40;99.90
70368;DHT22;57789;53.868;10.728;2023-02-26T18:44:52;1.30;99.90
70368;DHT22;57789;53.868;10.728;2023-02-26T18:47:19;1.30;99.90
70368;DHT22;57789;53.868;10.728;2023-02-26T18:49:46;1.40;99.90
70368;DHT22;57789;53.868;10.728;2023-02-26T18:52:12;1.40;99.90
70368;DHT22;57789;53.868;10.728;2023-02-26T18:54:39;1.40;99.90
70368;DHT22;57789;53.868;10.728;2023-02-26T18:57:05;1.40;99.90
70368;DHT22;57789;53.868;10.728;2023-02-26T18:59:32;1.30;99.90
70368;DHT22;57789;53.868;10.728;2023-02-26T19:01:59;1.30;99.90
70368;DHT22;57789;53.868;10.728;2023-02-26T19:04:25;1.20;99.90
70368;DHT22;57789;53.868;10.728;2023-02-26T19:06:51;1.20;99.90
70368;DHT22;57789;53.868;10.728;2023-02-26T19:09:17;1.20;99.90
70368;DHT22;57789;53.868;10.728;2023-02-26T19:11:43;1.10;99.90
70368;DHT22;57789;53.868;10.728;2023-02-26T19:14:09;1.10;99.90
70368;DHT22;57789;53.868;10.728;2023-02-26T19:16:35;1.00;99.90
70368;DHT22;57789;53.868;10.728;2023-02-26T19:19:05;0.90;99.90
70368;DHT22;57789;53.868;10.728;2023-02-26T19:21:32;0.90;99.90
70368;DHT22;57789;53.868;10.728;2023-02-26T19:24:03;0.80;99.90
70368;DHT22;57789;53.868;10.728;2023-02-26T19:26:30;0.80;99.90
70368;DHT22;57789;53.868;10.728;2023-02-26T19:28:56;0.80;99.90